Alpena, MI

3:00 AM EDT on September 25, 2016 (GMT -0400)
APRSWXNET | | Change Station

Elev 593 ft 45.05 °N, 83.45 °W | Updated 25 minutes ago

Clear
Clear
45 °F
Feels Like 45 °F
N
0
Wind Variable Wind from West
Gusts 0.0 mph

Today
High -- | Low -- °F
--% Chance of Precip.
Yesterday
High -- | Low -- °F
Precip. -- in
Pressure 30.27 in
Visibility 10.0 miles
Clouds Clear
Windchill 45 °F
Dew Point 43 °F
Humidity 94%
Rainfall in
Snow Depth Not available.
7:25 AM 7:24 PM
Waning Crescent, 30% visible
METAR KAPN 250654Z AUTO 00000KT 10SM CLR 06/04 A3025 RMK AO2 SLP248 T00610044
Pressure 30.27 in
Visibility 10.0 miles
Clouds Clear
Windchill 45 °F
Dew Point 43 °F
Humidity 94%
Rainfall in
Snow Depth Not available.
7:25 AM 7:24 PM
Waning Crescent, 30% visible
METAR KAPN 250654Z AUTO 00000KT 10SM CLR 06/04 A3025 RMK AO2 SLP248 T00610044

10-Day Weather Forecast

Almanac

Astronomy

Sep. 25, 2016 Rise Set
Actual Time
Civil Twilight
Nautical Twilight
Astronomical Twilight
Moon
Length of Visible Light
Length of Day
Tomorrow will be .
, % of the Moon is Illuminated

Today's Extremes

State Highs State Lows

Community

WunderPhotos

Upload Photos

1,941,554 photos uploaded!

WunderBlog® & News

Nearby

Air Quality

  Air Quality AQ Index Pollutant
Not available.

Snow Depth

Station Depth Elevation

Earthquake Activity

City Distance Mag. Time & Date
Minimum magnitude displayed is 2.5.

Coastal Water Temperatures

Place Temperature

Stations

Nearby Weather Stations

Station Location Temp. Windchill Dew Point Humidity Wind Precip. Elev Updated Type
                   

Watches & Warnings

There are currently no watches in effect.